Time;durP1;ratioP1;P1;durP2;ratioP2;P2;SDS_P1;SDS_P2;PMS_P1;PMS_P2;Temp;Humidity;BMP_temperature;BMP_pressure;BME280_temperature;BME280_humidity;BME280_pressure;Samples;Min_cycle;Max_cycle;Signal;HPM_P1;HPM_P2
2020/04/14 00:00:24;;;;;;;13.45;4.55;;;;;;;5;57.45313;95357.47;;;;
2020/04/14 00:01:29;;;;;;;13.45;4.55;;;;;;;5;57.45313;95357.47;;;;
2020/04/14 00:02:32;;;;;;;13.45;4.55;;;;;;;5;57.45313;95357.47;;;;
2020/04/14 00:03:33;;;;;;;10.3;4.349999;;;;;;;4.96;57.46875;95357.54;;;;
2020/04/14 00:04:34;;;;;;;10.3;4.349999;;;;;;;4.96;57.46875;95357.54;;;;
2020/04/14 00:05:35;;;;;;;11.95;4.5;;;;;;;4.88;57.71289;95351.01;;;;
2020/04/14 00:06:35;;;;;;;11.95;4.5;;;;;;;4.88;57.71289;95351.01;;;;
2020/04/14 00:07:37;;;;;;;11.95;4.5;;;;;;;4.88;57.71289;95351.01;;;;
2020/04/14 00:08:38;;;;;;;11.3;4.6;;;;;;;4.8;57.96777;95350.28;;;;
2020/04/14 00:09:38;;;;;;;11.3;4.6;;;;;;;4.8;57.96777;95350.28;;;;
2020/04/14 00:10:39;;;;;;;12.55;4.3;;;;;;;4.72;58.23242;95353.11;;;;
2020/04/14 00:11:39;;;;;;;12.55;4.3;;;;;;;4.72;58.23242;95353.11;;;;
2020/04/14 00:12:41;;;;;;;12.55;4.3;;;;;;;4.72;58.23242;95353.11;;;;
2020/04/14 00:13:41;;;;;;;12.55;4.3;;;;;;;4.72;58.23242;95353.11;;;;
2020/04/14 00:14:41;;;;;;;12.55;4.3;;;;;;;4.72;58.23242;95353.11;;;;
2020/04/14 00:15:42;;;;;;;12.55;4.3;;;;;;;4.72;58.23242;95353.11;;;;
2020/04/14 00:16:42;;;;;;;12.55;4.3;;;;;;;4.72;58.23242;95353.11;;;;
2020/04/14 00:17:43;;;;;;;12.55;4.3;;;;;;;4.72;58.23242;95353.11;;;;
2020/04/14 00:18:43;;;;;;;12.55;4.3;;;;;;;4.72;58.23242;95353.11;;;;
2020/04/14 00:19:44;;;;;;;12.55;4.3;;;;;;;4.72;58.23242;95353.11;;;;
2020/04/14 00:20:44;;;;;;;12.55;4.3;;;;;;;4.72;58.23242;95353.11;;;;
2020/04/14 00:21:45;;;;;;;9.25;3.9;;;;;;;4.08;57.87109;95342.64;;;;
2020/04/14 00:22:45;;;;;;;9.25;3.9;;;;;;;4.08;57.87109;95342.64;;;;
2020/04/14 00:23:46;;;;;;;9.25;3.9;;;;;;;4.08;57.87109;95342.64;;;;
2020/04/14 00:24:46;;;;;;;9.25;3.9;;;;;;;4.08;57.87109;95342.64;;;;
2020/04/14 00:25:47;;;;;;;9.25;3.9;;;;;;;4.08;57.87109;95342.64;;;;
2020/04/14 00:26:47;;;;;;;11.15;3.750001;;;;;;;4.03;58.42578;95349.08;;;;
2020/04/14 00:27:48;;;;;;;11.15;3.750001;;;;;;;4.03;58.42578;95349.08;;;;
2020/04/14 00:28:48;;;;;;;11.15;3.750001;;;;;;;4.03;58.42578;95349.08;;;;
2020/04/14 00:29:49;;;;;;;11.15;3.750001;;;;;;;4.03;58.42578;95349.08;;;;
2020/04/14 00:30:49;;;;;;;11.15;3.750001;;;;;;;4.03;58.42578;95349.08;;;;
2020/04/14 00:31:52;;;;;;;11.15;3.750001;;;;;;;4.03;58.42578;95349.08;;;;
2020/04/14 00:32:52;;;;;;;11.15;3.750001;;;;;;;4.03;58.42578;95349.08;;;;
2020/04/14 00:33:53;;;;;;;11.15;3.750001;;;;;;;4.03;58.42578;95349.08;;;;
2020/04/14 00:34:53;;;;;;;11.15;3.750001;;;;;;;4.03;58.42578;95349.08;;;;
2020/04/14 00:35:54;;;;;;;11.15;3.750001;;;;;;;4.03;58.42578;95349.08;;;;
2020/04/14 00:36:54;;;;;;;11.15;3.750001;;;;;;;4.03;58.42578;95349.08;;;;
2020/04/14 00:37:54;;;;;;;11.15;3.750001;;;;;;;4.03;58.42578;95349.08;;;;
2020/04/14 00:38:55;;;;;;;11.15;3.750001;;;;;;;4.03;58.42578;95349.08;;;;
2020/04/14 00:40:03;;;;;;;11.15;3.750001;;;;;;;4.03;58.42578;95349.08;;;;
2020/04/14 00:41:03;;;;;;;8.850001;3.3;;;;;;;3.57;58.20313;95335.88;;;;
2020/04/14 00:42:04;;;;;;;8.850001;3.3;;;;;;;3.57;58.20313;95335.88;;;;
2020/04/14 00:43:07;;;;;;;11.6;3.4;;;;;;;3.51;58.73633;95339.72;;;;
2020/04/14 00:44:08;;;;;;;11.6;3.4;;;;;;;3.51;58.73633;95339.72;;;;
2020/04/14 00:45:08;;;;;;;11.6;3.4;;;;;;;3.51;58.73633;95339.72;;;;
2020/04/14 00:46:09;;;;;;;12.1;4.2;;;;;;;3.53;59.14941;95328.85;;;;
2020/04/14 00:47:09;;;;;;;12.1;4.2;;;;;;;3.53;59.14941;95328.85;;;;
2020/04/14 00:48:10;;;;;;;12.1;4.2;;;;;;;3.53;59.14941;95328.85;;;;
2020/04/14 00:49:10;;;;;;;11.3;3.95;;;;;;;3.55;59.72363;95336.16;;;;
2020/04/14 00:50:10;;;;;;;11.3;3.95;;;;;;;3.55;59.72363;95336.16;;;;
2020/04/14 00:51:11;;;;;;;11.3;3.95;;;;;;;3.55;59.72363;95336.16;;;;
2020/04/14 00:52:11;;;;;;;11.3;3.95;;;;;;;3.55;59.72363;95336.16;;;;
2020/04/14 00:53:12;;;;;;;11.3;3.95;;;;;;;3.55;59.72363;95336.16;;;;
2020/04/14 00:54:12;;;;;;;11.3;3.95;;;;;;;3.55;59.72363;95336.16;;;;
2020/04/14 00:55:13;;;;;;;11.3;3.95;;;;;;;3.55;59.72363;95336.16;;;;
2020/04/14 00:56:13;;;;;;;11.3;3.95;;;;;;;3.55;59.72363;95336.16;;;;
2020/04/14 00:57:14;;;;;;;11.3;3.95;;;;;;;3.55;59.72363;95336.16;;;;
2020/04/14 00:58:14;;;;;;;11.3;3.95;;;;;;;3.55;59.72363;95336.16;;;;
2020/04/14 00:59:15;;;;;;;14.25;3.6;;;;;;;3.33;59.2373;95347.45;;;;
2020/04/14 01:00:15;;;;;;;14.25;3.6;;;;;;;3.33;59.2373;95347.45;;;;
2020/04/14 01:01:15;;;;;;;14.25;3.6;;;;;;;3.33;59.2373;95347.45;;;;
2020/04/14 01:02:16;;;;;;;9.65;3.45;;;;;;;3.38;59.66797;95349.45;;;;
2020/04/14 01:03:17;;;;;;;9.65;3.45;;;;;;;3.38;59.66797;95349.45;;;;
2020/04/14 01:04:17;;;;;;;11.25;4;;;;;;;3.52;59.94141;95355.24;;;;
2020/04/14 01:05:18;;;;;;;11.25;4;;;;;;;3.52;59.94141;95355.24;;;;
2020/04/14 01:06:18;;;;;;;11.25;4;;;;;;;3.52;59.94141;95355.24;;;;
2020/04/14 01:07:19;;;;;;;12.4;3.85;;;;;;;3.68;60.33398;95361.22;;;;
2020/04/14 01:08:19;;;;;;;12.4;3.85;;;;;;;3.68;60.33398;95361.22;;;;
2020/04/14 01:09:20;;;;;;;12.4;3.85;;;;;;;3.68;60.33398;95361.22;;;;
2020/04/14 01:10:20;;;;;;;12.4;3.85;;;;;;;3.68;60.33398;95361.22;;;;
2020/04/14 01:11:24;;;;;;;12.4;3.85;;;;;;;3.68;60.33398;95361.22;;;;
2020/04/14 01:12:26;;;;;;;12.4;3.85;;;;;;;3.68;60.33398;95361.22;;;;
2020/04/14 01:13:26;;;;;;;12.4;3.85;;;;;;;3.68;60.33398;95361.22;;;;
2020/04/14 01:14:27;;;;;;;12.4;3.85;;;;;;;3.68;60.33398;95361.22;;;;
2020/04/14 01:15:27;;;;;;;12.4;3.85;;;;;;;3.68;60.33398;95361.22;;;;
2020/04/14 01:16:28;;;;;;;12.4;3.85;;;;;;;3.68;60.33398;95361.22;;;;
2020/04/14 01:17:28;;;;;;;8.549999;3.35;;;;;;;3.92;59.28809;95364.83;;;;
2020/04/14 01:18:29;;;;;;;8.549999;3.35;;;;;;;3.92;59.28809;95364.83;;;;
2020/04/14 01:19:29;;;;;;;8.549999;3.35;;;;;;;3.92;59.28809;95364.83;;;;
2020/04/14 01:20:35;;;;;;;9.55;3.75;;;;;;;4.05;59.39063;95364.92;;;;
2020/04/14 01:21:38;;;;;;;9.55;3.75;;;;;;;4.05;59.39063;95364.92;;;;
2020/04/14 01:22:45;;;;;;;9.55;3.75;;;;;;;4.05;59.39063;95364.92;;;;
2020/04/14 01:23:47;;;;;;;9.55;3.75;;;;;;;4.05;59.39063;95364.92;;;;
2020/04/14 01:24:48;;;;;;;9.55;3.75;;;;;;;4.05;59.39063;95364.92;;;;
2020/04/14 01:25:48;;;;;;;9.55;3.75;;;;;;;4.05;59.39063;95364.92;;;;
2020/04/14 01:26:49;;;;;;;9.55;3.75;;;;;;;4.05;59.39063;95364.92;;;;
2020/04/14 01:27:49;;;;;;;9.55;3.75;;;;;;;4.05;59.39063;95364.92;;;;
2020/04/14 01:28:50;;;;;;;9.55;3.75;;;;;;;4.05;59.39063;95364.92;;;;
2020/04/14 01:29:50;;;;;;;9.55;3.75;;;;;;;4.05;59.39063;95364.92;;;;
2020/04/14 01:30:51;;;;;;;11;3.6;;;;;;;4.31;58.79199;95376.73;;;;
2020/04/14 01:31:51;;;;;;;11;3.6;;;;;;;4.31;58.79199;95376.73;;;;
2020/04/14 01:32:52;;;;;;;11;3.6;;;;;;;4.31;58.79199;95376.73;;;;
2020/04/14 01:33:53;;;;;;;10.3;3.25;;;;;;;4.42;59.03906;95377.53;;;;
2020/04/14 01:34:53;;;;;;;10.3;3.25;;;;;;;4.42;59.03906;95377.53;;;;
2020/04/14 01:35:54;;;;;;;10.3;3.25;;;;;;;4.42;59.03906;95377.53;;;;
2020/04/14 01:36:54;;;;;;;10.3;3.25;;;;;;;4.42;59.03906;95377.53;;;;
2020/04/14 01:37:54;;;;;;;10.3;3.25;;;;;;;4.42;59.03906;95377.53;;;;
2020/04/14 01:38:55;;;;;;;10.3;3.25;;;;;;;4.42;59.03906;95377.53;;;;
2020/04/14 01:39:55;;;;;;;10.3;3.25;;;;;;;4.42;59.03906;95377.53;;;;
2020/04/14 01:40:56;;;;;;;10.3;3.25;;;;;;;4.42;59.03906;95377.53;;;;
2020/04/14 01:41:56;;;;;;;10.3;3.25;;;;;;;4.42;59.03906;95377.53;;;;
2020/04/14 01:42:57;;;;;;;10.3;3.25;;;;;;;4.42;59.03906;95377.53;;;;
2020/04/14 01:43:57;;;;;;;9.1;3.75;;;;;;;4.58;58.38281;95366.52;;;;
2020/04/14 01:44:58;;;;;;;9.1;3.75;;;;;;;4.58;58.38281;95366.52;;;;
2020/04/14 01:45:58;;;;;;;9.1;3.75;;;;;;;4.58;58.38281;95366.52;;;;
2020/04/14 01:46:59;;;;;;;10.6;4;;;;;;;4.67;58.75586;95375.62;;;;
2020/04/14 01:47:59;;;;;;;10.6;4;;;;;;;4.67;58.75586;95375.62;;;;
2020/04/14 01:49:00;;;;;;;10.6;4;;;;;;;4.67;58.75586;95375.62;;;;
2020/04/14 01:50:00;;;;;;;10.6;4;;;;;;;4.67;58.75586;95375.62;;;;
2020/04/14 01:51:01;;;;;;;10.6;4;;;;;;;4.67;58.75586;95375.62;;;;
2020/04/14 01:52:01;;;;;;;10.6;4;;;;;;;4.67;58.75586;95375.62;;;;
2020/04/14 01:53:01;;;;;;;10.6;4;;;;;;;4.67;58.75586;95375.62;;;;
2020/04/14 01:54:02;;;;;;;10.6;4;;;;;;;4.67;58.75586;95375.62;;;;
2020/04/14 01:55:02;;;;;;;10.6;4;;;;;;;4.67;58.75586;95375.62;;;;
2020/04/14 01:56:03;;;;;;;10.6;4;;;;;;;4.67;58.75586;95375.62;;;;
2020/04/14 01:57:03;;;;;;;10.6;4;;;;;;;4.67;58.75586;95375.62;;;;
2020/04/14 01:58:04;;;;;;;9.450001;3.75;;;;;;;4.76;58.65039;95389.56;;;;
2020/04/14 01:59:04;;;;;;;9.450001;3.75;;;;;;;4.76;58.65039;95389.56;;;;
2020/04/14 02:00:05;;;;;;;11.15;4.05;;;;;;;4.84;59.07617;95394.34;;;;
2020/04/14 02:01:18;;;;;;;11.15;4.05;;;;;;;4.84;59.07617;95394.34;;;;
2020/04/14 02:02:24;;;;;;;11.15;4.05;;;;;;;4.84;59.07617;95394.34;;;;
2020/04/14 02:03:30;;;;;;;11.9;4.2;;;;;;;4.97;59.29395;95392.63;;;;
2020/04/14 02:04:32;;;;;;;11.9;4.2;;;;;;;4.97;59.29395;95392.63;;;;
2020/04/14 02:05:40;;;;;;;14.15;4.4;;;;;;;5.09;59.56738;95394.53;;;;
2020/04/14 02:06:48;;;;;;;14.15;4.4;;;;;;;5.09;59.56738;95394.53;;;;
2020/04/14 02:07:53;;;;;;;14.15;4.4;;;;;;;5.09;59.56738;95394.53;;;;
2020/04/14 02:08:54;;;;;;;14.15;4.4;;;;;;;5.09;59.56738;95394.53;;;;
2020/04/14 02:09:54;;;;;;;14.15;4.4;;;;;;;5.09;59.56738;95394.53;;;;
2020/04/14 02:10:55;;;;;;;14.15;4.4;;;;;;;5.09;59.56738;95394.53;;;;
2020/04/14 02:11:56;;;;;;;14.15;4.4;;;;;;;5.09;59.56738;95394.53;;;;
2020/04/14 02:12:56;;;;;;;14.15;4.4;;;;;;;5.09;59.56738;95394.53;;;;
2020/04/14 02:13:57;;;;;;;14.15;4.4;;;;;;;5.09;59.56738;95394.53;;;;
2020/04/14 02:14:57;;;;;;;14.15;4.4;;;;;;;5.09;59.56738;95394.53;;;;
2020/04/14 02:15:58;;;;;;;10.1;3.55;;;;;;;5;58.93848;95399.74;;;;
2020/04/14 02:16:58;;;;;;;10.1;3.55;;;;;;;5;58.93848;95399.74;;;;
2020/04/14 02:17:59;;;;;;;10.1;3.55;;;;;;;5;58.93848;95399.74;;;;
2020/04/14 02:18:59;;;;;;;9.349999;3.55;;;;;;;5.04;59.01953;95404.1;;;;
2020/04/14 02:20:00;;;;;;;9.349999;3.55;;;;;;;5.04;59.01953;95404.1;;;;
2020/04/14 02:21:00;;;;;;;9.349999;3.55;;;;;;;5.04;59.01953;95404.1;;;;
2020/04/14 02:22:01;;;;;;;9.349999;3.55;;;;;;;5.04;59.01953;95404.1;;;;
2020/04/14 02:23:01;;;;;;;9.349999;3.55;;;;;;;5.04;59.01953;95404.1;;;;
2020/04/14 02:24:02;;;;;;;9.349999;3.55;;;;;;;5.04;59.01953;95404.1;;;;
2020/04/14 02:25:02;;;;;;;9.349999;3.55;;;;;;;5.04;59.01953;95404.1;;;;
2020/04/14 02:26:03;;;;;;;9.349999;3.55;;;;;;;5.04;59.01953;95404.1;;;;
2020/04/14 02:27:03;;;;;;;9.349999;3.55;;;;;;;5.04;59.01953;95404.1;;;;
2020/04/14 02:28:04;;;;;;;9.349999;3.55;;;;;;;5.04;59.01953;95404.1;;;;
2020/04/14 02:29:04;;;;;;;8.600001;3.45;;;;;;;4.91;58.33301;95406.7;;;;
2020/04/14 02:30:05;;;;;;;8.600001;3.45;;;;;;;4.91;58.33301;95406.7;;;;
2020/04/14 02:31:05;;;;;;;8.600001;3.45;;;;;;;4.91;58.33301;95406.7;;;;
2020/04/14 02:32:05;;;;;;;9.299999;3.7;;;;;;;4.93;58.44141;95420.29;;;;
2020/04/14 02:33:06;;;;;;;9.299999;3.7;;;;;;;4.93;58.44141;95420.29;;;;
2020/04/14 02:34:06;;;;;;;9.299999;3.7;;;;;;;4.93;58.44141;95420.29;;;;
2020/04/14 02:35:07;;;;;;;9.299999;3.7;;;;;;;4.93;58.44141;95420.29;;;;
2020/04/14 02:36:07;;;;;;;9.299999;3.7;;;;;;;4.93;58.44141;95420.29;;;;
2020/04/14 02:37:08;;;;;;;9.299999;3.7;;;;;;;4.93;58.44141;95420.29;;;;
2020/04/14 02:38:08;;;;;;;9.299999;3.7;;;;;;;4.93;58.44141;95420.29;;;;
2020/04/14 02:39:08;;;;;;;9.299999;3.7;;;;;;;4.93;58.44141;95420.29;;;;
2020/04/14 02:40:09;;;;;;;9.299999;3.7;;;;;;;4.93;58.44141;95420.29;;;;
2020/04/14 02:41:09;;;;;;;9.299999;3.7;;;;;;;4.93;58.44141;95420.29;;;;
2020/04/14 02:42:10;;;;;;;9.299999;3.7;;;;;;;4.93;58.44141;95420.29;;;;
2020/04/14 02:43:10;;;;;;;9.350001;3.05;;;;;;;4.8;57.85059;95419.29;;;;
2020/04/14 02:44:11;;;;;;;9.350001;3.05;;;;;;;4.8;57.85059;95419.29;;;;
2020/04/14 02:45:11;;;;;;;10.55;3.400001;;;;;;;4.82;57.91699;95419.54;;;;
2020/04/14 02:46:11;;;;;;;10.55;3.400001;;;;;;;4.82;57.91699;95419.54;;;;
2020/04/14 02:47:12;;;;;;;10.55;3.400001;;;;;;;4.82;57.91699;95419.54;;;;
2020/04/14 02:48:12;;;;;;;10.55;3.400001;;;;;;;4.82;57.91699;95419.54;;;;
2020/04/14 02:49:13;;;;;;;10.55;3.400001;;;;;;;4.82;57.91699;95419.54;;;;
2020/04/14 02:50:13;;;;;;;10.55;3.400001;;;;;;;4.82;57.91699;95419.54;;;;
2020/04/14 02:51:14;;;;;;;10.55;3.400001;;;;;;;4.82;57.91699;95419.54;;;;
2020/04/14 02:52:14;;;;;;;10.55;3.400001;;;;;;;4.82;57.91699;95419.54;;;;
2020/04/14 02:53:14;;;;;;;10.55;3.400001;;;;;;;4.82;57.91699;95419.54;;;;
2020/04/14 02:54:15;;;;;;;10.55;3.400001;;;;;;;4.82;57.91699;95419.54;;;;
2020/04/14 02:55:15;;;;;;;10.55;3.400001;;;;;;;4.82;57.91699;95419.54;;;;
2020/04/14 02:56:16;;;;;;;6.199998;2.9;;;;;;;4.66;57.5459;95434.03;;;;
2020/04/14 02:57:16;;;;;;;6.199998;2.9;;;;;;;4.66;57.5459;95434.03;;;;
2020/04/14 02:58:17;;;;;;;9.5;3.15;;;;;;;4.68;57.4209;95437.42;;;;
2020/04/14 02:59:17;;;;;;;9.5;3.15;;;;;;;4.68;57.4209;95437.42;;;;
2020/04/14 03:00:17;;;;;;;9.5;3.15;;;;;;;4.68;57.4209;95437.42;;;;
2020/04/14 03:01:18;;;;;;;9.5;3.15;;;;;;;4.68;57.4209;95437.42;;;;
2020/04/14 03:02:19;;;;;;;9.5;3.15;;;;;;;4.68;57.4209;95437.42;;;;
2020/04/14 03:03:19;;;;;;;9.5;3.15;;;;;;;4.68;57.4209;95437.42;;;;
2020/04/14 03:04:20;;;;;;;9.5;3.15;;;;;;;4.68;57.4209;95437.42;;;;
2020/04/14 03:05:21;;;;;;;9.5;3.15;;;;;;;4.68;57.4209;95437.42;;;;
2020/04/14 03:06:27;;;;;;;9.5;3.15;;;;;;;4.68;57.4209;95437.42;;;;
2020/04/14 03:08:39;;;;;;;9.5;3.15;;;;;;;4.68;57.4209;95437.42;;;;
2020/04/14 03:09:48;;;;;;;9.450001;2.4;;;;;;;4.5;56.63379;95425.48;;;;
2020/04/14 03:11:11;;;;;;;9.450001;2.4;;;;;;;4.5;56.63379;95425.48;;;;
2020/04/14 03:12:21;;;;;;;9.450001;2.4;;;;;;;4.5;56.63379;95425.48;;;;
2020/04/14 03:13:26;;;;;;;9.450001;2.4;;;;;;;4.5;56.63379;95425.48;;;;
2020/04/14 03:14:47;;;;;;;9.450001;2.4;;;;;;;4.5;56.63379;95425.48;;;;
2020/04/14 03:15:54;;;;;;;9.450001;2.4;;;;;;;4.5;56.63379;95425.48;;;;
2020/04/14 03:18:06;;;;;;;9.450001;2.4;;;;;;;4.5;56.63379;95425.48;;;;
2020/04/14 03:19:13;;;;;;;9.450001;2.4;;;;;;;4.5;56.63379;95425.48;;;;
2020/04/14 03:20:18;;;;;;;9.450001;2.4;;;;;;;4.5;56.63379;95425.48;;;;
2020/04/14 03:26:30;;;;;;;6.35;2.750001;;;;;;;4.32;55.44336;95432.23;;;;
2020/04/14 03:27:31;;;;;;;6.35;2.750001;;;;;;;4.32;55.44336;95432.23;;;;
2020/04/14 03:28:31;;;;;;;6.35;2.750001;;;;;;;4.32;55.44336;95432.23;;;;
2020/04/14 03:29:32;;;;;;;6.35;2.750001;;;;;;;4.32;55.44336;95432.23;;;;
2020/04/14 03:30:32;;;;;;;6.35;2.750001;;;;;;;4.32;55.44336;95432.23;;;;
2020/04/14 03:31:33;;;;;;;6.35;2.750001;;;;;;;4.32;55.44336;95432.23;;;;
2020/04/14 03:32:33;;;;;;;6.35;2.750001;;;;;;;4.32;55.44336;95432.23;;;;
2020/04/14 03:33:34;;;;;;;6.35;2.750001;;;;;;;4.32;55.44336;95432.23;;;;
2020/04/14 03:34:34;;;;;;;6.35;2.750001;;;;;;;4.32;55.44336;95432.23;;;;
2020/04/14 03:35:34;;;;;;;6.35;2.750001;;;;;;;4.32;55.44336;95432.23;;;;
2020/04/14 03:36:35;;;;;;;6.299999;2.25;;;;;;;4.08;54.9668;95429.58;;;;
2020/04/14 03:37:35;;;;;;;6.299999;2.25;;;;;;;4.08;54.9668;95429.58;;;;
2020/04/14 03:38:36;;;;;;;6.299999;2.25;;;;;;;4.08;54.9668;95429.58;;;;
2020/04/14 03:39:36;;;;;;;6.299999;2.25;;;;;;;4.08;54.9668;95429.58;;;;
2020/04/14 03:40:37;;;;;;;6.299999;2.25;;;;;;;4.08;54.9668;95429.58;;;;
2020/04/14 03:41:37;;;;;;;6.299999;2.25;;;;;;;4.08;54.9668;95429.58;;;;
2020/04/14 03:42:38;;;;;;;6.299999;2.25;;;;;;;4.08;54.9668;95429.58;;;;
2020/04/14 03:43:38;;;;;;;6.299999;2.25;;;;;;;4.08;54.9668;95429.58;;;;
2020/04/14 03:44:39;;;;;;;6.299999;2.25;;;;;;;4.08;54.9668;95429.58;;;;
2020/04/14 03:45:39;;;;;;;6.299999;2.25;;;;;;;4.08;54.9668;95429.58;;;;
2020/04/14 03:46:39;;;;;;;7.950001;2.35;;;;;;;3.87;54.5166;95426.4;;;;
2020/04/14 03:47:40;;;;;;;7.950001;2.35;;;;;;;3.87;54.5166;95426.4;;;;
2020/04/14 03:48:40;;;;;;;7.950001;2.35;;;;;;;3.87;54.5166;95426.4;;;;
2020/04/14 03:49:41;;;;;;;7.950001;2.35;;;;;;;3.87;54.5166;95426.4;;;;
2020/04/14 03:50:41;;;;;;;7.950001;2.35;;;;;;;3.87;54.5166;95426.4;;;;
2020/04/14 03:51:42;;;;;;;7.950001;2.35;;;;;;;3.87;54.5166;95426.4;;;;
2020/04/14 03:52:42;;;;;;;7.950001;2.35;;;;;;;3.87;54.5166;95426.4;;;;
2020/04/14 03:53:42;;;;;;;7.950001;2.35;;;;;;;3.87;54.5166;95426.4;;;;
2020/04/14 03:54:43;;;;;;;7.950001;2.35;;;;;;;3.87;54.5166;95426.4;;;;
2020/04/14 03:55:43;;;;;;;7.950001;2.35;;;;;;;3.87;54.5166;95426.4;;;;
2020/04/14 03:56:44;;;;;;;7.950001;2.35;;;;;;;3.87;54.5166;95426.4;;;;
2020/04/14 03:57:44;;;;;;;6.349999;2.5;;;;;;;3.65;54.48828;95428.78;;;;
2020/04/14 03:58:45;;;;;;;6.349999;2.5;;;;;;;3.65;54.48828;95428.78;;;;
2020/04/14 03:59:45;;;;;;;7.5;2.45;;;;;;;3.67;54.49121;95427.14;;;;
2020/04/14 04:00:46;;;;;;;7.5;2.45;;;;;;;3.67;54.49121;95427.14;;;;
2020/04/14 04:01:46;;;;;;;7.5;2.45;;;;;;;3.67;54.49121;95427.14;;;;
2020/04/14 04:02:46;;;;;;;7.5;2.45;;;;;;;3.67;54.49121;95427.14;;;;
2020/04/14 04:03:47;;;;;;;7.5;2.45;;;;;;;3.67;54.49121;95427.14;;;;
2020/04/14 04:04:47;;;;;;;7.5;2.45;;;;;;;3.67;54.49121;95427.14;;;;
2020/04/14 04:05:48;;;;;;;7.5;2.45;;;;;;;3.67;54.49121;95427.14;;;;
2020/04/14 04:06:48;;;;;;;7.5;2.45;;;;;;;3.67;54.49121;95427.14;;;;
2020/04/14 04:07:49;;;;;;;7.5;2.45;;;;;;;3.67;54.49121;95427.14;;;;
2020/04/14 04:08:49;;;;;;;7.5;2.45;;;;;;;3.67;54.49121;95427.14;;;;
2020/04/14 04:09:50;;;;;;;7.5;2.45;;;;;;;3.67;54.49121;95427.14;;;;
2020/04/14 04:10:50;;;;;;;8.450001;2.45;;;;;;;3.57;54.30859;95443.98;;;;
2020/04/14 04:11:50;;;;;;;8.450001;2.45;;;;;;;3.57;54.30859;95443.98;;;;
2020/04/14 04:12:51;;;;;;;8.450001;2.45;;;;;;;3.57;54.30859;95443.98;;;;
2020/04/14 04:13:51;;;;;;;8.450001;2.45;;;;;;;3.57;54.30859;95443.98;;;;
2020/04/14 04:14:52;;;;;;;8.450001;2.45;;;;;;;3.57;54.30859;95443.98;;;;
2020/04/14 04:15:52;;;;;;;8.450001;2.45;;;;;;;3.57;54.30859;95443.98;;;;
2020/04/14 04:16:53;;;;;;;8.450001;2.45;;;;;;;3.57;54.30859;95443.98;;;;
2020/04/14 04:17:53;;;;;;;8.450001;2.45;;;;;;;3.57;54.30859;95443.98;;;;
2020/04/14 04:18:54;;;;;;;8.450001;2.45;;;;;;;3.57;54.30859;95443.98;;;;
2020/04/14 04:19:54;;;;;;;8.450001;2.45;;;;;;;3.57;54.30859;95443.98;;;;
2020/04/14 04:20:55;;;;;;;8.450001;2.45;;;;;;;3.57;54.30859;95443.98;;;;
2020/04/14 04:21:55;;;;;;;8.450001;2.45;;;;;;;3.57;54.30859;95443.98;;;;
2020/04/14 04:22:56;;;;;;;8.450001;2.45;;;;;;;3.57;54.30859;95443.98;;;;
2020/04/14 04:23:56;;;;;;;7.549999;2.2;;;;;;;3.63;53.8623;95451.64;;;;
2020/04/14 04:24:56;;;;;;;7.549999;2.2;;;;;;;3.63;53.8623;95451.64;;;;
2020/04/14 04:25:57;;;;;;;7.549999;2.2;;;;;;;3.63;53.8623;95451.64;;;;
2020/04/14 04:26:57;;;;;;;7.7;2.7;;;;;;;3.66;53.87598;95453.53;;;;
2020/04/14 04:27:58;;;;;;;7.7;2.7;;;;;;;3.66;53.87598;95453.53;;;;
2020/04/14 04:28:58;;;;;;;7.7;2.7;;;;;;;3.66;53.87598;95453.53;;;;
2020/04/14 04:29:58;;;;;;;7.7;2.7;;;;;;;3.66;53.87598;95453.53;;;;
2020/04/14 04:30:59;;;;;;;7.7;2.7;;;;;;;3.66;53.87598;95453.53;;;;
2020/04/14 04:31:59;;;;;;;7.7;2.7;;;;;;;3.66;53.87598;95453.53;;;;
2020/04/14 04:33:00;;;;;;;7.7;2.7;;;;;;;3.66;53.87598;95453.53;;;;
2020/04/14 04:34:00;;;;;;;7.7;2.7;;;;;;;3.66;53.87598;95453.53;;;;
2020/04/14 04:35:01;;;;;;;7.7;2.7;;;;;;;3.66;53.87598;95453.53;;;;
2020/04/14 04:36:01;;;;;;;7.7;2.7;;;;;;;3.66;53.87598;95453.53;;;;
2020/04/14 04:37:02;;;;;;;9.4;2.5;;;;;;;3.6;53.61328;95445.46;;;;
2020/04/14 04:38:02;;;;;;;9.4;2.5;;;;;;;3.6;53.61328;95445.46;;;;
2020/04/14 04:39:03;;;;;;;9.4;2.5;;;;;;;3.6;53.61328;95445.46;;;;
2020/04/14 04:40:04;;;;;;;9.4;2.5;;;;;;;3.6;53.61328;95445.46;;;;
2020/04/14 04:41:04;;;;;;;9.4;2.5;;;;;;;3.6;53.61328;95445.46;;;;
2020/04/14 04:42:05;;;;;;;9.4;2.5;;;;;;;3.6;53.61328;95445.46;;;;
2020/04/14 04:43:05;;;;;;;9.4;2.5;;;;;;;3.6;53.61328;95445.46;;;;
2020/04/14 04:44:06;;;;;;;9.4;2.5;;;;;;;3.6;53.61328;95445.46;;;;
2020/04/14 04:45:06;;;;;;;9.4;2.5;;;;;;;3.6;53.61328;95445.46;;;;
2020/04/14 04:46:07;;;;;;;9.4;2.5;;;;;;;3.6;53.61328;95445.46;;;;
2020/04/14 04:47:07;;;;;;;9.4;2.5;;;;;;;3.6;53.61328;95445.46;;;;
2020/04/14 04:48:08;;;;;;;7.35;2.4;;;;;;;3.59;53.4541;95456.22;;;;
2020/04/14 04:49:08;;;;;;;7.35;2.4;;;;;;;3.59;53.4541;95456.22;;;;
2020/04/14 04:50:09;;;;;;;7.35;2.4;;;;;;;3.59;53.4541;95456.22;;;;
2020/04/14 04:51:09;;;;;;;7.35;2.4;;;;;;;3.59;53.4541;95456.22;;;;
2020/04/14 04:52:09;;;;;;;7.35;2.4;;;;;;;3.59;53.4541;95456.22;;;;
2020/04/14 04:53:10;;;;;;;7.35;2.4;;;;;;;3.59;53.4541;95456.22;;;;
2020/04/14 04:54:10;;;;;;;7.35;2.4;;;;;;;3.59;53.4541;95456.22;;;;
2020/04/14 04:55:11;;;;;;;7.35;2.4;;;;;;;3.59;53.4541;95456.22;;;;
2020/04/14 04:56:11;;;;;;;7.35;2.4;;;;;;;3.59;53.4541;95456.22;;;;
2020/04/14 04:57:12;;;;;;;7.35;2.4;;;;;;;3.59;53.4541;95456.22;;;;
2020/04/14 04:58:12;;;;;;;4;2.15;;;;;;;3.56;53.28125;95470.34;;;;
2020/04/14 04:59:13;;;;;;;4;2.15;;;;;;;3.56;53.28125;95470.34;;;;
2020/04/14 05:00:13;;;;;;;4;2.15;;;;;;;3.56;53.28125;95470.34;;;;
2020/04/14 05:01:14;;;;;;;9.6;3.05;;;;;;;3.63;53.34277;95470.43;;;;
2020/04/14 05:02:14;;;;;;;9.6;3.05;;;;;;;3.63;53.34277;95470.43;;;;
2020/04/14 05:03:14;;;;;;;9.6;3.05;;;;;;;3.63;53.34277;95470.43;;;;
2020/04/14 05:04:15;;;;;;;9.6;3.05;;;;;;;3.63;53.34277;95470.43;;;;
2020/04/14 05:05:15;;;;;;;9.6;3.05;;;;;;;3.63;53.34277;95470.43;;;;
2020/04/14 05:06:16;;;;;;;9.6;3.05;;;;;;;3.63;53.34277;95470.43;;;;
2020/04/14 05:07:16;;;;;;;9.6;3.05;;;;;;;3.63;53.34277;95470.43;;;;
2020/04/14 05:08:17;;;;;;;9.6;3.05;;;;;;;3.63;53.34277;95470.43;;;;
2020/04/14 05:09:17;;;;;;;9.6;3.05;;;;;;;3.63;53.34277;95470.43;;;;
2020/04/14 05:10:17;;;;;;;9.6;3.05;;;;;;;3.63;53.34277;95470.43;;;;
2020/04/14 05:11:18;;;;;;;9.6;3.05;;;;;;;3.63;53.34277;95470.43;;;;
2020/04/14 05:12:18;;;;;;;7.349999;2.45;;;;;;;3.64;53.06836;95487.17;;;;
2020/04/14 05:13:19;;;;;;;7.349999;2.45;;;;;;;3.64;53.06836;95487.17;;;;
2020/04/14 05:14:19;;;;;;;7.349999;2.45;;;;;;;3.64;53.06836;95487.17;;;;
2020/04/14 05:15:20;;;;;;;7.349999;2.45;;;;;;;3.64;53.06836;95487.17;;;;
2020/04/14 05:16:20;;;;;;;7.349999;2.45;;;;;;;3.64;53.06836;95487.17;;;;
2020/04/14 05:17:20;;;;;;;7.349999;2.45;;;;;;;3.64;53.06836;95487.17;;;;
2020/04/14 05:18:21;;;;;;;7.349999;2.45;;;;;;;3.64;53.06836;95487.17;;;;
2020/04/14 05:19:21;;;;;;;7.349999;2.45;;;;;;;3.64;53.06836;95487.17;;;;
2020/04/14 05:20:22;;;;;;;7.349999;2.45;;;;;;;3.64;53.06836;95487.17;;;;
2020/04/14 05:21:22;;;;;;;7.349999;2.45;;;;;;;3.64;53.06836;95487.17;;;;
2020/04/14 05:22:23;;;;;;;6.150001;2.7;;;;;;;3.67;52.97754;95506.31;;;;
2020/04/14 05:23:23;;;;;;;6.150001;2.7;;;;;;;3.67;52.97754;95506.31;;;;
2020/04/14 05:24:24;;;;;;;6.150001;2.7;;;;;;;3.67;52.97754;95506.31;;;;
2020/04/14 05:25:24;;;;;;;6.150001;2.7;;;;;;;3.67;52.97754;95506.31;;;;
2020/04/14 05:26:24;;;;;;;6.150001;2.7;;;;;;;3.67;52.97754;95506.31;;;;
2020/04/14 05:27:25;;;;;;;6.150001;2.7;;;;;;;3.67;52.97754;95506.31;;;;
2020/04/14 05:28:25;;;;;;;6.150001;2.7;;;;;;;3.67;52.97754;95506.31;;;;
2020/04/14 05:34:35;;;;;;;8.15;2.6;;;;;;;3.78;52.77832;95526.35;;;;
2020/04/14 05:35:36;;;;;;;7.3;2.85;;;;;;;3.88;52.82129;95525.14;;;;
2020/04/14 05:36:36;;;;;;;7.3;2.85;;;;;;;3.88;52.82129;95525.14;;;;
2020/04/14 05:37:37;;;;;;;7.3;2.85;;;;;;;3.88;52.82129;95525.14;;;;
2020/04/14 05:38:37;;;;;;;7.3;2.85;;;;;;;3.88;52.82129;95525.14;;;;
2020/04/14 05:39:38;;;;;;;7.3;2.85;;;;;;;3.88;52.82129;95525.14;;;;
2020/04/14 05:40:38;;;;;;;7.3;2.85;;;;;;;3.88;52.82129;95525.14;;;;
2020/04/14 05:41:39;;;;;;;7.3;2.85;;;;;;;3.88;52.82129;95525.14;;;;
2020/04/14 05:42:39;;;;;;;7.3;2.85;;;;;;;3.88;52.82129;95525.14;;;;
2020/04/14 05:43:39;;;;;;;7.3;2.85;;;;;;;3.88;52.82129;95525.14;;;;
2020/04/14 05:44:40;;;;;;;7.3;2.85;;;;;;;3.88;52.82129;95525.14;;;;
2020/04/14 05:45:40;;;;;;;7.3;2.85;;;;;;;3.88;52.82129;95525.14;;;;
2020/04/14 05:46:41;;;;;;;11.8;2.65;;;;;;;4.03;52.24609;95529.52;;;;
2020/04/14 05:47:41;;;;;;;11.8;2.65;;;;;;;4.03;52.24609;95529.52;;;;
2020/04/14 05:48:42;;;;;;;10;2.8;;;;;;;4.1;52.22266;95530.83;;;;
2020/04/14 05:49:42;;;;;;;10;2.8;;;;;;;4.1;52.22266;95530.83;;;;
2020/04/14 05:50:42;;;;;;;10;2.8;;;;;;;4.1;52.22266;95530.83;;;;
2020/04/14 05:51:43;;;;;;;10;2.8;;;;;;;4.1;52.22266;95530.83;;;;
2020/04/14 05:52:43;;;;;;;10;2.8;;;;;;;4.1;52.22266;95530.83;;;;
2020/04/14 05:53:44;;;;;;;10;2.8;;;;;;;4.1;52.22266;95530.83;;;;
2020/04/14 05:54:44;;;;;;;10;2.8;;;;;;;4.1;52.22266;95530.83;;;;
2020/04/14 05:55:45;;;;;;;10;2.8;;;;;;;4.1;52.22266;95530.83;;;;
2020/04/14 05:56:45;;;;;;;10;2.8;;;;;;;4.1;52.22266;95530.83;;;;
2020/04/14 05:57:46;;;;;;;10;2.8;;;;;;;4.1;52.22266;95530.83;;;;
2020/04/14 05:58:46;;;;;;;10;2.8;;;;;;;4.1;52.22266;95530.83;;;;